createdAt,value
2023-01-25T00:00:35.797Z,17.60
2023-01-25T00:03:03.878Z,21.70
2023-01-25T00:05:31.540Z,19.60
2023-01-25T00:07:59.531Z,20.97
2023-01-25T00:10:27.802Z,20.80
2023-01-25T00:12:57.006Z,16.80
2023-01-25T00:15:26.331Z,18.77
2023-01-25T00:17:53.966Z,17.27
2023-01-25T00:20:23.475Z,16.20
2023-01-25T00:26:30.890Z,18.80
2023-01-25T00:28:59.514Z,21.50
2023-01-25T00:31:39.286Z,21.13
2023-01-25T00:34:17.192Z,18.40
2023-01-25T00:36:46.154Z,17.50
2023-01-25T00:39:15.039Z,16.53
2023-01-25T00:41:42.735Z,17.97
2023-01-25T00:44:11.501Z,16.53
2023-01-25T00:46:40.566Z,17.13
2023-01-25T00:49:09.012Z,15.70
2023-01-25T00:51:36.640Z,14.03
2023-01-25T00:54:04.733Z,15.70
2023-01-25T00:56:32.374Z,16.83
2023-01-25T00:59:00.084Z,16.27
2023-01-25T01:01:28.250Z,15.83
2023-01-25T01:03:57.365Z,15.83
2023-01-25T01:06:25.794Z,18.87
2023-01-25T01:08:54.307Z,17.37
2023-01-25T01:11:23.325Z,17.20
2023-01-25T01:13:51.667Z,15.70
2023-01-25T01:16:19.751Z,17.70
2023-01-25T01:18:47.718Z,17.73
2023-01-25T01:21:16.685Z,19.40
2023-01-25T01:23:45.432Z,18.00
2023-01-25T01:26:15.797Z,18.13
2023-01-25T01:28:43.992Z,20.17
2023-01-25T01:31:14.913Z,14.50
2023-01-25T01:33:50.321Z,18.47
2023-01-25T01:36:22.661Z,19.50
2023-01-25T01:38:50.637Z,21.10
2023-01-25T01:41:19.145Z,18.57
2023-01-25T01:43:48.211Z,19.43
2023-01-25T01:46:22.634Z,19.30
2023-01-25T01:48:55.408Z,21.20
2023-01-25T01:51:37.579Z,19.50
2023-01-25T01:54:15.317Z,22.67
2023-01-25T01:56:50.177Z,21.27
2023-01-25T01:59:19.351Z,24.83
2023-01-25T02:01:48.382Z,19.13
2023-01-25T02:04:17.849Z,19.20
2023-01-25T02:06:49.558Z,21.03
2023-01-25T02:09:21.966Z,18.80
2023-01-25T02:11:51.958Z,20.60
2023-01-25T02:14:21.462Z,19.60
2023-01-25T02:16:49.258Z,17.57
2023-01-25T02:19:29.788Z,19.73
2023-01-25T02:22:01.278Z,15.87
2023-01-25T02:24:33.586Z,19.40
2023-01-25T02:27:03.404Z,21.50
2023-01-25T02:29:31.606Z,19.93
2023-01-25T02:32:05.701Z,21.90
2023-01-25T02:34:34.262Z,19.77
2023-01-25T02:37:02.296Z,20.60
2023-01-25T02:39:31.049Z,18.33
2023-01-25T02:41:59.396Z,20.83
2023-01-25T02:44:34.545Z,21.37
2023-01-25T02:47:04.939Z,24.27
2023-01-25T02:49:36.116Z,19.60
2023-01-25T02:52:05.965Z,20.37
2023-01-25T02:54:34.243Z,18.17
2023-01-25T02:57:05.671Z,19.10
2023-01-25T02:59:43.918Z,19.23
2023-01-25T03:02:14.175Z,20.43
2023-01-25T03:04:43.280Z,17.47
2023-01-25T03:07:11.945Z,20.67
2023-01-25T03:09:40.191Z,19.10
2023-01-25T03:12:08.307Z,22.10
2023-01-25T03:14:36.123Z,23.10
2023-01-25T03:17:05.526Z,20.27
2023-01-25T03:19:34.206Z,21.07
2023-01-25T03:22:02.882Z,15.53
2023-01-25T03:24:33.254Z,18.60
2023-01-25T03:27:17.750Z,16.93
2023-01-25T03:29:50.127Z,14.93
2023-01-25T03:32:23.831Z,19.10
2023-01-25T03:34:51.837Z,18.70
2023-01-25T03:37:21.215Z,22.20
2023-01-25T03:39:50.589Z,14.67
2023-01-25T03:42:21.475Z,15.57
2023-01-25T03:44:53.183Z,16.90
2023-01-25T03:47:21.812Z,18.07
2023-01-25T03:49:51.309Z,18.00
2023-01-25T03:52:20.485Z,18.03
2023-01-25T03:54:48.939Z,18.77
2023-01-25T03:57:16.946Z,20.00
2023-01-25T03:59:59.537Z,18.50
2023-01-25T04:02:28.506Z,15.17
2023-01-25T04:04:58.286Z,17.40
2023-01-25T04:07:27.146Z,21.03
2023-01-25T04:09:55.782Z,19.33
2023-01-25T04:12:25.054Z,16.38
2023-01-25T04:14:53.784Z,17.63
2023-01-25T04:17:23.888Z,17.80
2023-01-25T04:20:17.253Z,22.70
2023-01-25T04:22:45.644Z,15.60
2023-01-25T04:25:16.772Z,16.63
2023-01-25T04:27:51.360Z,17.97
2023-01-25T04:30:19.597Z,16.10
2023-01-25T04:32:49.718Z,18.73
2023-01-25T04:35:32.861Z,19.40
2023-01-25T04:38:03.343Z,14.90
2023-01-25T04:40:41.021Z,16.17
2023-01-25T04:43:09.240Z,16.10
2023-01-25T04:45:38.087Z,14.30
2023-01-25T04:48:13.759Z,14.90
2023-01-25T04:50:50.619Z,17.90
2023-01-25T04:53:22.451Z,14.90
2023-01-25T04:55:50.892Z,18.17
2023-01-25T04:58:19.476Z,17.07
2023-01-25T05:00:47.199Z,13.87
2023-01-25T05:03:15.039Z,15.23
2023-01-25T05:05:47.204Z,12.33
2023-01-25T05:08:20.746Z,18.67
2023-01-25T05:10:48.551Z,13.90
2023-01-25T05:13:40.439Z,14.43
2023-01-25T05:16:15.184Z,14.33
2023-01-25T05:18:48.815Z,16.87
2023-01-25T05:21:36.149Z,19.00
2023-01-25T05:24:06.902Z,16.10
2023-01-25T05:26:53.277Z,15.93
2023-01-25T05:29:21.607Z,16.93
2023-01-25T05:31:59.164Z,16.93
2023-01-25T05:34:27.696Z,14.83
2023-01-25T05:36:56.005Z,14.70
2023-01-25T05:39:25.172Z,13.33
2023-01-25T05:41:55.274Z,13.23
2023-01-25T05:44:25.202Z,12.77
2023-01-25T05:46:54.102Z,12.87
2023-01-25T05:49:23.039Z,12.93
2023-01-25T05:51:50.792Z,16.83
2023-01-25T05:54:20.612Z,11.50
2023-01-25T05:56:58.840Z,20.20
2023-01-25T05:59:26.647Z,14.03
2023-01-25T06:01:55.684Z,15.50
2023-01-25T06:04:23.547Z,12.07
2023-01-25T06:06:51.623Z,13.30
2023-01-25T06:09:19.983Z,12.60
2023-01-25T06:11:48.186Z,15.70
2023-01-25T06:14:17.375Z,14.87
2023-01-25T06:16:46.263Z,10.37
2023-01-25T06:19:38.520Z,14.90
2023-01-25T06:22:26.471Z,13.27
2023-01-25T06:24:54.528Z,15.30
2023-01-25T06:27:22.214Z,14.57
2023-01-25T06:29:51.182Z,10.00
2023-01-25T06:32:19.456Z,13.50
2023-01-25T06:34:47.787Z,15.77
2023-01-25T06:37:22.844Z,14.17
2023-01-25T06:39:51.992Z,15.73
2023-01-25T06:42:19.752Z,15.23
2023-01-25T06:44:47.859Z,11.07
2023-01-25T06:47:16.896Z,11.90
2023-01-25T06:49:45.330Z,11.63
2023-01-25T06:52:13.124Z,14.00
2023-01-25T06:54:41.624Z,13.23
2023-01-25T06:57:10.312Z,12.33
2023-01-25T06:59:38.025Z,12.57
2023-01-25T07:02:06.598Z,14.37
2023-01-25T07:04:35.973Z,12.50
2023-01-25T07:07:04.469Z,14.03
2023-01-25T07:09:32.113Z,12.00
2023-01-25T07:12:00.198Z,12.47
2023-01-25T07:14:27.831Z,17.10
2023-01-25T07:16:55.954Z,13.53
2023-01-25T07:19:23.768Z,15.20
2023-01-25T07:21:53.637Z,10.30
2023-01-25T07:24:21.563Z,13.17
2023-01-25T07:26:49.897Z,13.23
2023-01-25T07:29:18.269Z,14.63
2023-01-25T07:31:46.010Z,11.90
2023-01-25T07:34:14.392Z,14.60
2023-01-25T07:36:44.712Z,13.10
2023-01-25T07:39:14.497Z,16.10
2023-01-25T07:41:42.538Z,16.13
2023-01-25T07:44:14.164Z,17.43
2023-01-25T07:46:47.436Z,18.63
2023-01-25T07:49:15.604Z,20.17
2023-01-25T07:51:43.249Z,14.40
2023-01-25T07:54:13.520Z,15.80
2023-01-25T07:56:41.274Z,16.93
2023-01-25T07:59:12.003Z,17.77
2023-01-25T08:01:40.378Z,16.87
2023-01-25T08:04:09.120Z,12.60
2023-01-25T08:06:39.773Z,12.63
2023-01-25T08:09:09.980Z,14.87
2023-01-25T08:11:39.528Z,14.20
2023-01-25T08:14:08.663Z,18.37
2023-01-25T08:16:36.324Z,18.00
2023-01-25T08:19:04.862Z,16.37
2023-01-25T08:21:34.193Z,16.27
2023-01-25T08:24:05.322Z,20.50
2023-01-25T08:26:34.102Z,16.40
2023-01-25T08:29:04.479Z,18.50
2023-01-25T08:31:34.484Z,20.80
2023-01-25T08:34:03.141Z,17.80
2023-01-25T08:36:31.440Z,18.17
2023-01-25T08:39:01.862Z,15.70
2023-01-25T08:41:32.637Z,17.33
2023-01-25T08:44:00.704Z,18.40
2023-01-25T08:46:33.098Z,19.40
2023-01-25T08:49:03.099Z,19.70
2023-01-25T08:51:32.541Z,18.67
2023-01-25T08:54:03.847Z,21.77
2023-01-25T08:56:32.116Z,15.40
2023-01-25T08:58:59.749Z,15.93
2023-01-25T09:01:29.172Z,20.70
2023-01-25T09:03:57.053Z,20.90
2023-01-25T09:06:25.557Z,24.63
2023-01-25T09:08:53.161Z,18.30
2023-01-25T09:11:23.283Z,18.30
2023-01-25T09:13:51.992Z,23.57
2023-01-25T09:16:28.992Z,15.33
2023-01-25T09:19:00.719Z,22.63
2023-01-25T09:21:29.891Z,21.37
2023-01-25T09:24:07.276Z,19.60
2023-01-25T09:26:37.839Z,17.50
2023-01-25T09:29:07.848Z,21.00
2023-01-25T09:31:37.088Z,20.83
2023-01-25T09:34:16.360Z,19.73
2023-01-25T09:36:44.152Z,19.40
2023-01-25T09:39:15.215Z,20.20
2023-01-25T09:42:20.384Z,21.97
2023-01-25T09:45:01.662Z,16.60
2023-01-25T09:47:34.645Z,16.83
2023-01-25T09:50:18.680Z,17.00
2023-01-25T09:53:21.447Z,17.53
2023-01-25T09:55:55.720Z,16.60
2023-01-25T09:58:29.445Z,15.67
2023-01-25T10:01:14.446Z,21.40
2023-01-25T10:03:49.692Z,17.30
2023-01-25T10:06:23.622Z,15.50
2023-01-25T10:09:02.500Z,18.03
2023-01-25T10:11:32.381Z,16.50
2023-01-25T10:14:01.027Z,17.33
2023-01-25T10:16:33.424Z,16.57
2023-01-25T10:19:13.495Z,21.10
2023-01-25T10:21:46.817Z,18.00
2023-01-25T10:24:53.446Z,16.37
2023-01-25T10:27:29.683Z,14.03
2023-01-25T10:29:59.810Z,17.63
2023-01-25T10:32:32.578Z,17.90
2023-01-25T10:35:19.751Z,18.83
2023-01-25T10:37:55.520Z,16.23
2023-01-25T10:40:28.196Z,17.57
2023-01-25T10:43:04.320Z,18.50
2023-01-25T10:45:32.753Z,18.67
2023-01-25T10:48:06.908Z,15.67
2023-01-25T10:50:50.066Z,19.70
2023-01-25T10:53:26.056Z,17.57
2023-01-25T10:56:02.079Z,15.93
2023-01-25T10:58:32.262Z,14.73
2023-01-25T11:01:01.187Z,16.00
2023-01-25T11:03:37.589Z,16.50
2023-01-25T11:06:06.405Z,14.90
2023-01-25T11:08:38.536Z,16.93
2023-01-25T11:11:27.956Z,14.33
2023-01-25T11:13:56.365Z,15.00
2023-01-25T11:16:32.275Z,12.90
2023-01-25T11:19:02.757Z,17.83
2023-01-25T11:21:32.456Z,15.03
2023-01-25T11:24:18.709Z,16.73
2023-01-25T11:26:46.976Z,15.53
2023-01-25T11:29:17.568Z,16.90
2023-01-25T11:31:47.967Z,17.10
2023-01-25T11:34:17.817Z,18.63
2023-01-25T11:36:58.533Z,17.37
2023-01-25T11:39:39.388Z,18.73
2023-01-25T11:42:22.496Z,17.17
2023-01-25T11:45:35.062Z,21.90
2023-01-25T11:48:21.683Z,18.00
2023-01-25T11:50:57.463Z,15.37
2023-01-25T11:53:36.345Z,16.53
2023-01-25T11:56:16.570Z,14.43
2023-01-25T11:59:00.096Z,15.03
2023-01-25T12:01:37.198Z,15.90
2023-01-25T12:04:24.618Z,17.70
2023-01-25T12:07:00.430Z,17.10
2023-01-25T12:09:47.455Z,19.80
2023-01-25T12:12:30.620Z,19.03
2023-01-25T12:15:19.795Z,17.23
2023-01-25T12:18:07.092Z,19.17
2023-01-25T12:21:01.597Z,16.10
2023-01-25T12:23:41.144Z,17.93
2023-01-25T12:26:21.423Z,15.20
2023-01-25T12:28:54.868Z,16.13
2023-01-25T12:31:28.477Z,20.50
2023-01-25T12:34:03.428Z,20.47
2023-01-25T12:36:35.933Z,20.60
2023-01-25T12:39:05.350Z,20.17
2023-01-25T12:41:41.283Z,21.27
2023-01-25T12:44:20.092Z,21.67
2023-01-25T12:46:56.495Z,22.77
2023-01-25T12:49:32.009Z,20.10
2023-01-25T12:52:12.637Z,19.43
2023-01-25T12:55:01.329Z,22.57
2023-01-25T13:00:40.420Z,19.93
2023-01-25T13:03:24.576Z,22.67
2023-01-25T13:06:04.351Z,20.23
2023-01-25T13:08:59.911Z,22.87
2023-01-25T13:11:36.151Z,17.80
2023-01-25T13:14:33.390Z,18.17
2023-01-25T13:17:24.959Z,18.80
2023-01-25T13:19:57.614Z,21.33
2023-01-25T13:23:04.456Z,21.40
2023-01-25T13:25:37.446Z,21.70
2023-01-25T13:28:43.225Z,18.13
2023-01-25T13:31:12.554Z,17.87
2023-01-25T13:33:46.996Z,23.23
2023-01-25T13:36:47.248Z,21.17
2023-01-25T13:39:44.025Z,20.53
2023-01-25T13:42:24.533Z,23.00
2023-01-25T13:58:22.770Z,17.90
2023-01-25T14:00:54.469Z,23.50
2023-01-25T14:03:26.779Z,20.67
2023-01-25T14:05:57.787Z,24.40
2023-01-25T14:08:27.438Z,25.37
2023-01-25T14:10:58.989Z,26.83
2023-01-25T14:13:26.769Z,21.57
2023-01-25T14:15:57.739Z,21.20
2023-01-25T14:18:33.191Z,17.90
2023-01-25T14:21:17.644Z,30.70
2023-01-25T14:23:46.632Z,25.83
2023-01-25T14:26:21.892Z,30.60
2023-01-25T14:29:01.207Z,23.60
2023-01-25T14:31:34.045Z,18.33
2023-01-25T14:34:04.432Z,19.83
2023-01-25T14:36:34.801Z,16.47
2023-01-25T14:39:04.837Z,17.10
2023-01-25T14:41:37.191Z,20.27
2023-01-25T14:44:10.601Z,15.47
2023-01-25T14:46:40.669Z,15.33
2023-01-25T14:49:10.566Z,18.40
2023-01-25T14:51:44.395Z,19.33
2023-01-25T14:54:17.062Z,18.60
2023-01-25T14:56:49.815Z,17.50
2023-01-25T14:59:37.102Z,19.43
2023-01-25T15:02:17.927Z,17.03
2023-01-25T15:04:57.255Z,15.37
2023-01-25T15:07:46.611Z,18.33
2023-01-25T15:10:20.150Z,15.50
2023-01-25T15:13:17.887Z,16.20
2023-01-25T15:15:55.360Z,13.93
2023-01-25T15:18:43.957Z,17.30
2023-01-25T15:21:13.657Z,20.90
2023-01-25T15:23:42.766Z,16.90
2023-01-25T15:26:20.317Z,16.60
2023-01-25T15:28:50.336Z,16.53
2023-01-25T15:31:19.985Z,17.70
2023-01-25T15:33:48.720Z,16.30
2023-01-25T15:36:17.873Z,14.40
2023-01-25T15:38:46.494Z,18.10
2023-01-25T15:41:15.282Z,18.73
2023-01-25T15:43:43.468Z,15.27
2023-01-25T15:46:18.968Z,15.53
2023-01-25T15:48:48.313Z,16.60
2023-01-25T15:51:17.910Z,14.37
2023-01-25T15:53:46.749Z,16.00
2023-01-25T15:56:18.156Z,17.13
2023-01-25T15:58:48.550Z,15.63
2023-01-25T16:01:17.884Z,18.30
2023-01-25T16:03:45.720Z,15.47
2023-01-25T16:06:40.011Z,13.57
2023-01-25T16:09:16.075Z,15.30
2023-01-25T16:11:44.711Z,18.53
2023-01-25T16:14:12.926Z,19.77
2023-01-25T16:16:45.903Z,18.57
2023-01-25T16:19:15.174Z,17.17
2023-01-25T16:21:43.290Z,16.27
2023-01-25T16:24:12.903Z,14.50
2023-01-25T16:26:45.027Z,17.90
2023-01-25T16:29:13.722Z,18.93
2023-01-25T16:31:43.022Z,13.77
2023-01-25T16:34:10.969Z,17.73
2023-01-25T16:36:39.740Z,16.70
2023-01-25T16:39:10.478Z,12.17
2023-01-25T16:41:38.839Z,14.23
2023-01-25T16:44:06.575Z,14.43
2023-01-25T16:46:34.871Z,12.30
2023-01-25T16:49:07.064Z,10.33
2023-01-25T16:51:36.129Z,12.90
2023-01-25T16:54:04.130Z,14.20
2023-01-25T16:56:34.551Z,12.70
2023-01-25T16:59:05.703Z,11.97
2023-01-25T17:01:35.491Z,12.03
2023-01-25T17:04:05.133Z,15.20
2023-01-25T17:06:34.416Z,12.10
2023-01-25T17:09:12.687Z,12.70
2023-01-25T17:11:49.091Z,16.63
2023-01-25T17:14:19.224Z,11.30
2023-01-25T17:16:48.578Z,13.60
2023-01-25T17:19:19.079Z,15.00
2023-01-25T17:21:47.947Z,12.27
2023-01-25T17:24:17.659Z,13.90
2023-01-25T17:26:45.905Z,16.80
2023-01-25T17:29:13.848Z,20.70
2023-01-25T17:31:44.594Z,18.20
2023-01-25T17:34:15.950Z,14.10
2023-01-25T17:36:46.093Z,14.77
2023-01-25T17:39:15.971Z,13.20
2023-01-25T17:41:44.479Z,15.07
2023-01-25T17:44:12.163Z,12.67
2023-01-25T17:46:39.869Z,14.47
2023-01-25T17:49:09.680Z,18.07
2023-01-25T17:51:37.677Z,15.90
2023-01-25T17:54:07.340Z,18.53
2023-01-25T17:56:36.258Z,16.43
2023-01-25T17:59:08.743Z,15.90
2023-01-25T18:01:37.378Z,17.07
2023-01-25T18:04:08.758Z,14.03
2023-01-25T18:06:39.482Z,14.27
2023-01-25T18:09:08.838Z,16.20
2023-01-25T18:11:40.278Z,13.77
2023-01-25T18:14:09.621Z,10.57
2023-01-25T18:16:41.669Z,12.47
2023-01-25T18:19:10.151Z,11.10
2023-01-25T18:21:39.261Z,11.20
2023-01-25T18:24:25.500Z,14.40
2023-01-25T18:26:59.955Z,13.63
2023-01-25T18:29:46.629Z,14.77
2023-01-25T18:32:15.450Z,11.27
2023-01-25T18:34:44.034Z,12.00
2023-01-25T18:37:21.830Z,11.13
2023-01-25T18:39:53.311Z,9.53
2023-01-25T18:42:22.231Z,11.77
2023-01-25T18:44:51.140Z,11.43
2023-01-25T18:47:20.732Z,15.27
2023-01-25T18:49:49.891Z,14.67
2023-01-25T18:52:19.004Z,12.63
2023-01-25T18:54:56.231Z,11.00
2023-01-25T18:57:25.240Z,13.40
2023-01-25T18:59:53.830Z,10.73
2023-01-25T19:02:23.269Z,13.57
2023-01-25T19:04:51.349Z,9.73
2023-01-25T19:07:18.918Z,12.77
2023-01-25T19:09:48.227Z,9.50
2023-01-25T19:12:16.105Z,12.67
2023-01-25T19:14:45.143Z,10.03
2023-01-25T19:17:12.831Z,20.53
2023-01-25T19:19:42.440Z,14.90
2023-01-25T19:22:10.160Z,13.93
2023-01-25T19:24:38.373Z,15.97
2023-01-25T19:27:05.991Z,13.57
2023-01-25T19:29:34.205Z,13.83
2023-01-25T19:32:03.686Z,11.33
2023-01-25T19:34:31.369Z,13.00
2023-01-25T19:36:59.542Z,16.70
2023-01-25T19:39:27.226Z,11.10
2023-01-25T19:41:56.009Z,10.70
2023-01-25T19:44:24.839Z,13.60
2023-01-25T19:46:52.957Z,12.70
2023-01-25T19:49:22.860Z,11.70
2023-01-25T19:51:54.178Z,11.33
2023-01-25T19:54:23.981Z,12.50
2023-01-25T19:56:52.910Z,11.13
2023-01-25T19:59:26.886Z,12.37
2023-01-25T20:01:55.011Z,12.13
2023-01-25T20:04:25.168Z,8.80
2023-01-25T20:06:54.394Z,11.20
2023-01-25T20:09:27.520Z,10.97
2023-01-25T20:11:57.017Z,11.03
2023-01-25T20:14:24.899Z,11.50
2023-01-25T20:16:52.965Z,10.57
2023-01-25T20:19:20.998Z,13.93
2023-01-25T20:21:50.632Z,13.80
2023-01-25T20:24:18.515Z,10.90
2023-01-25T20:26:47.401Z,11.27
2023-01-25T20:29:15.168Z,12.17
2023-01-25T20:31:44.739Z,12.47
2023-01-25T20:34:15.405Z,15.50
2023-01-25T20:36:44.892Z,9.50
2023-01-25T20:39:17.628Z,11.80
2023-01-25T20:41:45.748Z,10.37
2023-01-25T20:44:15.478Z,14.23
2023-01-25T20:46:43.948Z,10.73
2023-01-25T20:49:16.566Z,11.20
2023-01-25T20:51:44.588Z,10.60
2023-01-25T20:54:14.686Z,12.87
2023-01-25T20:56:43.181Z,12.67
2023-01-25T20:59:11.320Z,18.73
2023-01-25T21:01:39.556Z,12.80
2023-01-25T21:04:09.703Z,12.20
2023-01-25T21:06:38.772Z,11.90
2023-01-25T21:09:06.739Z,10.13
2023-01-25T21:11:36.699Z,12.43
2023-01-25T21:14:04.667Z,12.03
2023-01-25T21:16:32.947Z,11.77
2023-01-25T21:19:05.991Z,12.43
2023-01-25T21:21:34.861Z,12.07
2023-01-25T21:24:05.335Z,13.70
2023-01-25T21:26:37.429Z,10.03
2023-01-25T21:29:06.380Z,12.80
2023-01-25T21:31:37.719Z,14.83
2023-01-25T21:34:06.134Z,12.83
2023-01-25T21:36:34.917Z,14.27
2023-01-25T21:39:03.621Z,15.07
2023-01-25T21:41:33.725Z,16.63
2023-01-25T21:44:21.457Z,12.80
2023-01-25T21:47:16.475Z,15.17
2023-01-25T21:49:55.228Z,15.77
2023-01-25T21:52:23.853Z,12.83
2023-01-25T21:54:51.573Z,12.43
2023-01-25T21:57:20.049Z,13.30
2023-01-25T21:59:49.852Z,16.33
2023-01-25T22:02:18.508Z,13.00
2023-01-25T22:04:47.067Z,13.33
2023-01-25T22:07:14.791Z,15.27
2023-01-25T22:09:43.040Z,13.83
2023-01-25T22:12:12.314Z,16.03
2023-01-25T22:14:41.528Z,16.60
2023-01-25T22:17:12.242Z,13.57
2023-01-25T22:19:40.165Z,13.13
2023-01-25T22:22:08.426Z,8.50
2023-01-25T22:24:36.038Z,13.77
2023-01-25T22:27:26.069Z,12.90
2023-01-25T22:29:53.681Z,12.90
2023-01-25T22:32:23.294Z,14.30
2023-01-25T22:34:50.937Z,11.73
2023-01-25T22:37:19.717Z,11.50
2023-01-25T22:39:48.349Z,15.37
2023-01-25T22:42:16.034Z,16.70
2023-01-25T22:44:43.642Z,14.87
2023-01-25T22:47:11.352Z,14.37
2023-01-25T22:49:41.173Z,13.83
2023-01-25T22:52:09.382Z,14.73
2023-01-25T22:54:37.836Z,15.20
2023-01-25T22:57:05.857Z,13.80
2023-01-25T22:59:33.926Z,14.33
2023-01-25T23:02:01.956Z,11.90
2023-01-25T23:04:30.866Z,13.00
2023-01-25T23:07:12.064Z,9.73
2023-01-25T23:09:41.213Z,13.03
2023-01-25T23:12:09.624Z,15.33
2023-01-25T23:14:52.930Z,12.77
2023-01-25T23:17:39.696Z,15.20
2023-01-25T23:20:10.372Z,12.53
2023-01-25T23:22:40.263Z,15.03
2023-01-25T23:25:10.685Z,15.20
2023-01-25T23:27:39.016Z,17.93
2023-01-25T23:30:09.382Z,12.73
2023-01-25T23:32:38.078Z,15.20
2023-01-25T23:35:07.784Z,17.13
2023-01-25T23:37:35.423Z,12.90
2023-01-25T23:40:09.828Z,14.63
2023-01-25T23:42:38.027Z,15.80
2023-01-25T23:45:08.124Z,14.17
2023-01-25T23:47:36.121Z,13.97
2023-01-25T23:50:04.401Z,14.07
2023-01-25T23:52:32.486Z,14.33
2023-01-25T23:55:00.951Z,14.03
2023-01-25T23:57:29.961Z,13.93
2023-01-25T23:59:57.987Z,12.60
